createdAt,value
2017-10-30T00:00:19.865Z,8.80
2017-10-30T00:02:46.647Z,8.70
2017-10-30T00:05:13.382Z,8.80
2017-10-30T00:07:40.112Z,8.70
2017-10-30T00:10:11.378Z,8.70
2017-10-30T00:12:42.834Z,8.60
2017-10-30T00:15:14.052Z,8.70
2017-10-30T00:17:44.026Z,8.60
2017-10-30T00:20:17.851Z,8.60
2017-10-30T00:22:49.246Z,8.60
2017-10-30T00:25:20.509Z,8.60
2017-10-30T00:27:50.333Z,8.60
2017-10-30T00:30:21.964Z,8.70
2017-10-30T00:32:53.203Z,8.60
2017-10-30T00:35:24.207Z,8.60
2017-10-30T00:37:55.666Z,8.50
2017-10-30T00:40:23.374Z,8.50
2017-10-30T00:42:54.754Z,8.50
2017-10-30T00:45:25.992Z,8.50
2017-10-30T00:47:54.363Z,8.50
2017-10-30T00:50:25.699Z,8.50
2017-10-30T00:52:55.970Z,8.50
2017-10-30T00:55:27.372Z,8.40
2017-10-30T00:57:59.662Z,8.40
2017-10-30T01:00:31.112Z,8.40
2017-10-30T01:03:02.423Z,8.50
2017-10-30T01:05:33.801Z,8.40
2017-10-30T01:08:05.182Z,8.40
2017-10-30T01:10:37.268Z,8.40
2017-10-30T01:13:08.641Z,8.40
2017-10-30T01:15:39.192Z,8.30
2017-10-30T01:18:10.112Z,8.30
2017-10-30T01:20:40.673Z,8.40
2017-10-30T01:23:11.835Z,8.30
2017-10-30T01:25:44.154Z,8.30
2017-10-30T01:28:15.490Z,8.30
2017-10-30T01:30:46.939Z,8.30
2017-10-30T01:33:18.465Z,8.20
2017-10-30T01:35:45.227Z,8.30
2017-10-30T01:38:16.804Z,8.30
2017-10-30T01:40:49.840Z,8.20
2017-10-30T01:43:21.585Z,8.30
2017-10-30T01:45:52.796Z,8.20
2017-10-30T01:48:23.917Z,8.20
2017-10-30T01:50:56.040Z,8.20
2017-10-30T01:53:27.084Z,8.30
2017-10-30T01:55:58.458Z,8.30
2017-10-30T01:58:29.746Z,8.30
2017-10-30T02:00:59.967Z,8.30
2017-10-30T02:03:31.354Z,8.30
2017-10-30T02:05:59.305Z,8.30
2017-10-30T02:08:29.134Z,8.30
2017-10-30T02:11:00.138Z,8.30
2017-10-30T02:13:31.354Z,8.30
2017-10-30T02:16:02.330Z,8.30
2017-10-30T02:18:35.337Z,8.30
2017-10-30T02:21:06.635Z,8.40
2017-10-30T02:23:37.487Z,8.30
2017-10-30T02:26:07.645Z,8.30
2017-10-30T02:28:37.257Z,8.20
2017-10-30T02:31:08.789Z,8.20
2017-10-30T02:33:39.972Z,8.20
2017-10-30T02:36:11.931Z,8.20
2017-10-30T02:38:42.709Z,8.10
2017-10-30T02:41:12.319Z,8.10
2017-10-30T02:43:44.142Z,8.10
2017-10-30T02:46:15.486Z,8.00
2017-10-30T02:48:46.950Z,8.00
2017-10-30T02:51:17.901Z,8.00
2017-10-30T02:53:48.857Z,8.00
2017-10-30T02:56:15.547Z,8.10
2017-10-30T02:58:42.239Z,8.00
2017-10-30T03:01:08.825Z,8.00
2017-10-30T03:03:36.305Z,8.00
2017-10-30T03:06:03.075Z,8.00
2017-10-30T03:08:29.960Z,8.10
2017-10-30T03:10:56.630Z,8.00
2017-10-30T03:13:24.229Z,8.00
2017-10-30T03:15:55.303Z,8.00
2017-10-30T03:18:26.456Z,8.00
2017-10-30T03:20:57.669Z,8.00
2017-10-30T03:23:28.952Z,8.00
2017-10-30T03:25:59.979Z,8.00
2017-10-30T03:28:29.694Z,7.90
2017-10-30T03:31:00.943Z,7.90
2017-10-30T03:33:31.899Z,7.90
2017-10-30T03:36:02.482Z,7.80
2017-10-30T03:38:33.585Z,7.80
2017-10-30T03:41:04.603Z,7.80
2017-10-30T03:43:35.224Z,7.70
2017-10-30T03:46:06.536Z,7.70
2017-10-30T03:48:37.780Z,7.80
2017-10-30T03:51:08.956Z,7.80
2017-10-30T03:53:39.890Z,7.80
2017-10-30T03:56:11.143Z,7.70
2017-10-30T03:58:42.352Z,7.80
2017-10-30T04:01:13.751Z,7.80
2017-10-30T04:13:24.533Z,7.60
2017-10-30T04:15:55.595Z,7.60
2017-10-30T04:18:24.572Z,7.60
2017-10-30T04:20:53.081Z,7.70
2017-10-30T04:23:24.089Z,7.70
2017-10-30T04:25:55.205Z,7.70
2017-10-30T04:28:26.486Z,7.80
2017-10-30T04:30:56.983Z,7.70
2017-10-30T04:33:28.152Z,7.70
2017-10-30T04:35:58.665Z,7.60
2017-10-30T04:38:29.416Z,7.60
2017-10-30T04:40:57.280Z,7.60
2017-10-30T04:43:29.435Z,7.60
2017-10-30T04:46:01.144Z,7.60
2017-10-30T04:48:27.919Z,7.60
2017-10-30T04:50:54.904Z,7.60
2017-10-30T04:53:21.984Z,7.60
2017-10-30T04:55:48.284Z,7.60
2017-10-30T04:58:14.510Z,7.60
2017-10-30T05:00:40.712Z,7.60
2017-10-30T05:03:06.867Z,7.60
2017-10-30T05:05:33.068Z,7.60
2017-10-30T05:07:59.280Z,7.60
2017-10-30T05:10:25.505Z,7.60
2017-10-30T05:12:51.683Z,7.60
2017-10-30T05:15:18.244Z,7.70
2017-10-30T05:17:45.675Z,7.70
2017-10-30T05:20:11.975Z,7.70
2017-10-30T05:22:38.180Z,7.80
2017-10-30T05:25:04.370Z,7.80
2017-10-30T05:27:31.737Z,7.80
2017-10-30T05:29:58.429Z,7.80
2017-10-30T05:32:24.608Z,7.80
2017-10-30T05:34:51.281Z,7.80
2017-10-30T05:37:17.440Z,7.80
2017-10-30T05:39:43.642Z,7.90
2017-10-30T05:42:09.871Z,7.90
2017-10-30T05:44:36.136Z,7.90
2017-10-30T05:47:02.315Z,7.90
2017-10-30T05:49:28.507Z,7.90
2017-10-30T05:51:56.403Z,7.90
2017-10-30T05:54:23.249Z,7.90
2017-10-30T05:56:49.983Z,7.90
2017-10-30T05:59:17.259Z,7.90
2017-10-30T06:01:43.500Z,8.00
2017-10-30T06:04:10.276Z,8.00
2017-10-30T06:06:36.615Z,8.00
2017-10-30T06:09:02.879Z,8.00
2017-10-30T06:11:29.076Z,8.00
2017-10-30T06:13:55.263Z,8.10
2017-10-30T06:16:21.463Z,8.00
2017-10-30T06:18:47.735Z,8.00
2017-10-30T06:21:14.363Z,8.00
2017-10-30T06:23:41.941Z,7.90
2017-10-30T06:26:08.462Z,8.00
2017-10-30T06:28:34.683Z,8.00
2017-10-30T06:31:00.903Z,8.00
2017-10-30T06:33:27.283Z,8.00
2017-10-30T06:35:55.525Z,8.00
2017-10-30T06:38:21.798Z,8.00
2017-10-30T06:40:49.062Z,8.10
2017-10-30T06:43:15.199Z,8.20
2017-10-30T06:45:41.417Z,8.20
2017-10-30T06:48:08.422Z,8.20
2017-10-30T06:50:34.698Z,8.30
2017-10-30T06:53:00.967Z,8.30
2017-10-30T06:55:27.194Z,8.30
2017-10-30T06:57:53.346Z,8.40
2017-10-30T07:00:19.558Z,8.40
2017-10-30T07:02:56.779Z,8.50
2017-10-30T07:05:22.962Z,8.50
2017-10-30T07:07:49.186Z,8.60
2017-10-30T07:10:15.363Z,8.70
2017-10-30T07:12:41.571Z,8.70
2017-10-30T07:15:09.099Z,8.80
2017-10-30T07:17:35.355Z,8.80
2017-10-30T07:20:01.583Z,9.00
2017-10-30T07:22:27.793Z,9.00
2017-10-30T07:24:54.019Z,9.10
2017-10-30T07:27:20.751Z,9.20
2017-10-30T07:29:46.962Z,9.20
2017-10-30T07:32:13.192Z,9.40
2017-10-30T07:34:39.403Z,9.30
2017-10-30T07:37:05.635Z,9.40
2017-10-30T07:49:12.595Z,9.30
2017-10-30T07:51:38.842Z,9.30
2017-10-30T07:54:05.076Z,9.40
2017-10-30T07:56:31.719Z,9.40
2017-10-30T07:58:57.974Z,9.40
2017-10-30T08:01:24.305Z,9.40
2017-10-30T08:03:50.510Z,9.40
2017-10-30T08:06:16.791Z,9.50
2017-10-30T08:08:43.050Z,9.70
2017-10-30T08:11:09.308Z,9.80
2017-10-30T08:13:35.583Z,9.90
2017-10-30T08:16:02.128Z,10.10
2017-10-30T08:18:28.451Z,10.20
2017-10-30T08:20:55.423Z,10.40
2017-10-30T08:23:21.632Z,10.80
2017-10-30T08:25:47.893Z,10.80
2017-10-30T08:28:14.884Z,11.50
2017-10-30T08:30:41.065Z,12.00
2017-10-30T08:33:07.362Z,12.40
2017-10-30T08:35:33.647Z,12.50
2017-10-30T08:37:59.932Z,12.50
2017-10-30T08:40:26.143Z,12.50
2017-10-30T08:42:52.381Z,12.10
2017-10-30T08:45:18.643Z,12.20
2017-10-30T08:47:44.883Z,12.20
2017-10-30T08:50:11.184Z,12.60
2017-10-30T08:52:37.359Z,13.10
2017-10-30T08:55:03.602Z,13.40
2017-10-30T08:57:29.840Z,13.50
2017-10-30T08:59:56.115Z,13.70
2017-10-30T09:02:22.330Z,13.90
2017-10-30T09:04:48.599Z,14.20
2017-10-30T09:07:14.873Z,14.20
2017-10-30T09:09:41.155Z,14.20
2017-10-30T09:12:07.391Z,14.30
2017-10-30T09:14:33.612Z,14.60
2017-10-30T09:17:00.124Z,14.70
2017-10-30T09:19:26.322Z,15.30
2017-10-30T09:21:52.559Z,15.30
2017-10-30T09:24:18.782Z,15.20
2017-10-30T09:26:45.043Z,14.50
2017-10-30T09:29:11.281Z,14.10
2017-10-30T09:31:38.317Z,14.10
2017-10-30T09:34:04.566Z,14.10
2017-10-30T09:36:30.773Z,15.30
2017-10-30T09:38:57.014Z,15.70
2017-10-30T09:41:23.346Z,16.00
2017-10-30T09:43:50.315Z,16.40
2017-10-30T09:46:16.572Z,16.40
2017-10-30T09:48:43.551Z,17.50
2017-10-30T09:51:10.159Z,17.50
2017-10-30T09:53:36.976Z,17.50
2017-10-30T09:56:03.215Z,16.20
2017-10-30T09:58:29.494Z,16.00
2017-10-30T10:00:55.752Z,16.40
2017-10-30T10:03:22.029Z,16.40
2017-10-30T10:05:48.323Z,16.10
2017-10-30T10:08:14.592Z,16.00
2017-10-30T10:10:40.818Z,15.70
2017-10-30T10:13:07.308Z,15.70
2017-10-30T10:15:33.600Z,15.50
2017-10-30T10:27:39.823Z,15.60
2017-10-30T10:30:06.072Z,16.80
2017-10-30T10:32:32.320Z,16.70
2017-10-30T10:34:58.551Z,16.40
2017-10-30T10:37:24.874Z,16.40
2017-10-30T10:39:51.143Z,16.10
2017-10-30T10:42:17.370Z,16.00
2017-10-30T10:44:43.621Z,15.60
2017-10-30T10:47:09.822Z,15.50
2017-10-30T10:49:36.061Z,15.50
2017-10-30T10:52:02.302Z,15.80
2017-10-30T10:54:29.442Z,16.20
2017-10-30T10:56:56.703Z,16.70
2017-10-30T10:59:24.356Z,16.70
2017-10-30T11:01:50.537Z,17.40
2017-10-30T11:04:16.766Z,18.00
2017-10-30T11:06:45.761Z,18.40
2017-10-30T11:09:13.474Z,18.40
2017-10-30T11:11:39.698Z,18.90
2017-10-30T11:14:06.433Z,19.00
2017-10-30T11:16:32.687Z,19.00
2017-10-30T11:18:59.968Z,19.40
2017-10-30T11:21:27.131Z,19.30
2017-10-30T11:23:54.827Z,18.70
2017-10-30T11:26:22.652Z,18.80
2017-10-30T11:28:48.877Z,18.90
2017-10-30T11:31:16.315Z,19.10
2017-10-30T11:33:44.938Z,18.90
2017-10-30T11:36:11.240Z,18.20
2017-10-30T11:38:37.474Z,17.60
2017-10-30T11:41:04.091Z,17.00
2017-10-30T11:43:30.313Z,16.50
2017-10-30T11:45:58.029Z,16.50
2017-10-30T11:48:25.882Z,16.60
2017-10-30T11:50:53.491Z,17.10
2017-10-30T11:53:25.087Z,17.30
2017-10-30T11:55:52.405Z,17.40
2017-10-30T11:58:21.286Z,17.40
2017-10-30T12:00:49.768Z,17.30
2017-10-30T12:12:56.038Z,16.30
2017-10-30T12:15:22.291Z,16.40
2017-10-30T12:17:48.879Z,17.20
2017-10-30T12:20:15.199Z,17.30
2017-10-30T12:22:42.141Z,17.30
2017-10-30T12:25:09.183Z,17.00
2017-10-30T12:27:36.256Z,16.80
2017-10-30T12:30:03.703Z,16.90
2017-10-30T12:32:32.442Z,16.90
2017-10-30T12:34:59.649Z,16.50
2017-10-30T12:37:25.891Z,16.10
2017-10-30T12:39:54.542Z,15.40
2017-10-30T12:42:21.010Z,15.00
2017-10-30T12:44:47.233Z,14.50
2017-10-30T12:47:13.453Z,14.20
2017-10-30T12:49:39.687Z,13.90
2017-10-30T12:52:05.898Z,13.80
2017-10-30T12:54:32.137Z,13.60
2017-10-30T12:56:59.062Z,13.70
2017-10-30T12:59:25.622Z,13.70
2017-10-30T13:01:51.933Z,13.70
2017-10-30T13:04:18.977Z,13.60
2017-10-30T13:06:46.056Z,13.50
2017-10-30T13:09:13.239Z,13.50
2017-10-30T13:11:39.554Z,13.50
2017-10-30T13:14:13.249Z,13.30
2017-10-30T13:16:40.951Z,13.30
2017-10-30T13:28:47.662Z,13.40
2017-10-30T13:31:15.196Z,13.40
2017-10-30T13:33:41.780Z,13.40
2017-10-30T13:36:08.062Z,13.40
2017-10-30T13:38:34.423Z,13.40
2017-10-30T13:41:02.436Z,13.40
2017-10-30T13:43:30.165Z,13.40
2017-10-30T13:45:58.043Z,13.30
2017-10-30T13:48:24.997Z,13.10
2017-10-30T13:50:52.290Z,13.00
2017-10-30T13:53:18.501Z,13.00
2017-10-30T13:55:44.850Z,12.90
2017-10-30T13:58:16.278Z,12.80
2017-10-30T14:00:45.282Z,12.90
2017-10-30T14:03:11.535Z,13.00
2017-10-30T14:05:37.719Z,13.10
2017-10-30T14:08:04.334Z,13.20
2017-10-30T14:10:35.791Z,13.10
2017-10-30T14:13:03.291Z,13.10
2017-10-30T14:15:30.638Z,13.00
2017-10-30T14:17:57.637Z,12.90
2017-10-30T14:20:25.667Z,12.90
2017-10-30T14:22:51.867Z,12.70
2017-10-30T14:25:18.842Z,12.70
2017-10-30T14:27:45.091Z,12.60
2017-10-30T14:30:11.380Z,12.70
2017-10-30T14:32:39.337Z,12.60
2017-10-30T14:35:06.745Z,12.70
2017-10-30T14:40:03.518Z,12.60
2017-10-30T14:42:32.084Z,12.60
2017-10-30T14:44:59.996Z,12.50
2017-10-30T14:47:26.981Z,12.50
2017-10-30T14:49:53.668Z,12.50
2017-10-30T14:52:20.619Z,12.60
2017-10-30T14:54:49.108Z,12.50
2017-10-30T14:57:17.603Z,12.40
2017-10-30T14:59:44.822Z,12.40
2017-10-30T15:02:11.109Z,12.20
2017-10-30T15:04:37.357Z,12.20
2017-10-30T15:07:03.997Z,12.10
2017-10-30T15:09:30.207Z,12.00
2017-10-30T15:11:56.772Z,12.00
2017-10-30T15:14:23.586Z,12.00
2017-10-30T15:16:50.180Z,12.00
2017-10-30T15:19:17.205Z,11.90
2017-10-30T15:21:43.451Z,11.90
2017-10-30T15:24:09.720Z,11.80
2017-10-30T15:26:36.056Z,11.80
2017-10-30T15:29:03.186Z,11.70
2017-10-30T15:31:29.522Z,11.70
2017-10-30T15:33:55.763Z,11.70
2017-10-30T15:36:22.306Z,11.60
2017-10-30T15:38:48.576Z,11.50
2017-10-30T15:41:15.627Z,11.50
2017-10-30T15:43:42.888Z,11.50
2017-10-30T15:46:09.902Z,11.50
2017-10-30T15:48:36.420Z,11.50
2017-10-30T15:51:02.643Z,11.40
2017-10-30T15:53:28.900Z,11.30
2017-10-30T15:55:55.241Z,11.40
2017-10-30T15:58:22.492Z,11.40
2017-10-30T16:00:50.312Z,11.40
2017-10-30T16:03:18.536Z,11.40
2017-10-30T16:05:45.092Z,11.30
2017-10-30T16:08:11.300Z,11.30
2017-10-30T16:10:38.348Z,11.20
2017-10-30T16:13:05.179Z,11.30
2017-10-30T16:15:31.444Z,11.20
2017-10-30T16:17:59.552Z,11.20
2017-10-30T16:20:25.927Z,11.20
2017-10-30T16:22:53.560Z,11.20
2017-10-30T16:25:20.401Z,11.10
2017-10-30T16:27:48.004Z,11.10
2017-10-30T16:30:14.216Z,11.00
2017-10-30T16:32:41.231Z,11.00
2017-10-30T16:35:07.526Z,10.90
2017-10-30T16:37:33.748Z,10.90
2017-10-30T16:39:59.956Z,10.80
2017-10-30T16:42:28.947Z,10.80
2017-10-30T16:44:56.001Z,10.80
2017-10-30T16:47:27.547Z,10.70
2017-10-30T16:49:53.976Z,10.80
2017-10-30T16:52:21.734Z,10.70
2017-10-30T16:54:49.002Z,10.70
2017-10-30T16:57:16.108Z,10.70
2017-10-30T16:59:43.393Z,10.70
2017-10-30T17:02:11.026Z,10.60
2017-10-30T17:04:37.783Z,10.60
2017-10-30T17:07:04.992Z,10.60
2017-10-30T17:09:32.089Z,10.60
2017-10-30T17:11:58.486Z,10.60
2017-10-30T17:14:24.768Z,10.60
2017-10-30T17:16:51.193Z,10.60
2017-10-30T17:19:17.413Z,10.50
2017-10-30T17:21:43.695Z,10.50
2017-10-30T17:24:12.879Z,10.60
2017-10-30T17:26:40.752Z,10.60
2017-10-30T17:29:07.025Z,10.50
2017-10-30T17:31:33.962Z,10.40
2017-10-30T17:34:01.059Z,10.30
2017-10-30T17:36:42.262Z,10.20
2017-10-30T17:39:08.640Z,10.20
2017-10-30T17:41:34.864Z,10.20
2017-10-30T17:44:01.446Z,10.20
2017-10-30T17:46:29.482Z,10.20
2017-10-30T17:58:35.722Z,9.80
2017-10-30T18:01:02.072Z,9.70
2017-10-30T18:03:28.951Z,9.80
2017-10-30T18:05:55.953Z,9.80
2017-10-30T18:08:22.223Z,9.70
2017-10-30T18:10:49.213Z,9.80
2017-10-30T18:13:17.065Z,9.70
2017-10-30T18:15:45.047Z,9.60
2017-10-30T18:18:11.918Z,9.60
2017-10-30T18:20:38.536Z,9.70
2017-10-30T18:23:07.295Z,9.70
2017-10-30T18:25:34.487Z,9.70
2017-10-30T18:28:01.063Z,9.60
2017-10-30T18:30:28.559Z,9.60
2017-10-30T18:32:55.651Z,9.50
2017-10-30T18:35:24.022Z,9.50
2017-10-30T18:37:51.452Z,9.40
2017-10-30T18:40:17.681Z,9.40
2017-10-30T18:42:43.943Z,9.40
2017-10-30T18:45:10.210Z,9.30
2017-10-30T18:47:36.459Z,9.20
2017-10-30T18:50:02.772Z,9.20
2017-10-30T18:52:29.811Z,9.30
2017-10-30T18:54:56.003Z,9.80
2017-10-30T18:57:23.329Z,9.70
2017-10-30T19:09:31.252Z,9.00
2017-10-30T19:11:59.159Z,9.00
2017-10-30T19:14:26.433Z,9.00
2017-10-30T19:16:52.740Z,9.10
2017-10-30T19:19:20.566Z,8.90
2017-10-30T19:21:48.169Z,8.90
2017-10-30T19:24:14.690Z,8.90
2017-10-30T19:26:40.883Z,8.90
2017-10-30T19:29:07.966Z,8.70
2017-10-30T19:31:35.103Z,8.60
2017-10-30T19:34:01.461Z,8.50
2017-10-30T19:36:28.211Z,8.70
2017-10-30T19:38:55.208Z,8.60
2017-10-30T19:41:22.627Z,8.50
2017-10-30T19:43:49.741Z,8.40
2017-10-30T19:46:16.215Z,8.30
2017-10-30T19:48:43.639Z,8.20
2017-10-30T19:51:10.711Z,8.10
2017-10-30T19:53:37.530Z,8.10
2017-10-30T19:56:04.229Z,8.00
2017-10-30T19:58:30.553Z,8.10
2017-10-30T20:00:57.196Z,8.30
2017-10-30T20:03:23.976Z,8.30
2017-10-30T20:05:57.187Z,8.30
2017-10-30T20:08:30.685Z,8.20
2017-10-30T20:11:03.156Z,8.10
2017-10-30T20:13:29.936Z,8.00
2017-10-30T20:15:57.049Z,8.00
2017-10-30T20:18:24.921Z,8.10
2017-10-30T20:20:51.190Z,8.20
2017-10-30T20:23:18.409Z,8.10
2017-10-30T20:25:46.824Z,8.00
2017-10-30T20:28:13.986Z,8.00
2017-10-30T20:30:40.650Z,7.80
2017-10-30T20:33:08.710Z,7.70
2017-10-30T20:35:36.576Z,7.70
2017-10-30T20:38:03.665Z,7.60
2017-10-30T20:40:29.961Z,7.60
2017-10-30T20:42:56.403Z,7.60
2017-10-30T20:45:23.810Z,7.60
2017-10-30T20:47:50.226Z,7.50
2017-10-30T20:50:17.795Z,7.50
2017-10-30T20:52:45.117Z,7.50
2017-10-30T20:55:12.484Z,7.40
2017-10-30T20:57:38.729Z,7.50
2017-10-30T21:00:05.587Z,7.40
2017-10-30T21:02:31.904Z,7.40
2017-10-30T21:04:58.115Z,7.40
2017-10-30T21:07:25.220Z,7.40
2017-10-30T21:09:52.447Z,7.60
2017-10-30T21:12:20.758Z,7.60
2017-10-30T21:14:47.666Z,7.70
2017-10-30T21:17:15.704Z,7.60
2017-10-30T21:19:42.948Z,7.60
2017-10-30T21:22:10.582Z,7.70
2017-10-30T21:24:36.878Z,7.60
2017-10-30T21:27:03.945Z,7.50
2017-10-30T21:29:30.372Z,7.40
2017-10-30T21:31:57.116Z,7.40
2017-10-30T21:34:23.347Z,7.30
2017-10-30T21:36:49.790Z,7.30
2017-10-30T21:39:17.083Z,7.30
2017-10-30T21:41:43.632Z,7.30
2017-10-30T21:44:11.501Z,7.30
2017-10-30T21:46:39.415Z,7.30
2017-10-30T21:49:06.066Z,7.30
2017-10-30T21:51:34.661Z,7.30
2017-10-30T21:54:02.297Z,7.30
2017-10-30T21:56:29.374Z,7.40
2017-10-30T21:58:56.045Z,7.30
2017-10-30T22:01:24.022Z,7.30
2017-10-30T22:03:50.198Z,7.40
2017-10-30T22:06:16.406Z,7.40
2017-10-30T22:08:44.963Z,7.40
2017-10-30T22:11:13.688Z,7.50
2017-10-30T22:13:40.273Z,7.60
2017-10-30T22:16:08.327Z,7.60
2017-10-30T22:18:34.751Z,7.70
2017-10-30T22:21:01.328Z,7.70
2017-10-30T22:23:27.561Z,7.70
2017-10-30T22:25:53.760Z,7.70
2017-10-30T22:28:20.927Z,7.70
2017-10-30T22:30:47.150Z,6.20
2017-10-30T22:33:13.354Z,7.50
2017-10-30T22:35:39.954Z,7.50
2017-10-30T22:38:07.982Z,7.40
2017-10-30T22:40:34.552Z,7.40
2017-10-30T22:43:01.266Z,7.40
2017-10-30T22:45:27.541Z,7.40
2017-10-30T22:47:53.809Z,7.40
2017-10-30T22:50:20.829Z,7.40
2017-10-30T22:52:47.397Z,7.40
2017-10-30T22:55:16.145Z,7.40
2017-10-30T22:57:43.709Z,7.40
2017-10-30T23:00:09.922Z,7.40
2017-10-30T23:02:36.197Z,7.30
2017-10-30T23:05:03.214Z,7.20
2017-10-30T23:07:29.435Z,7.10
2017-10-30T23:09:55.674Z,7.10
2017-10-30T23:12:21.930Z,7.00
2017-10-30T23:14:48.543Z,7.10
2017-10-30T23:17:15.597Z,7.20
2017-10-30T23:19:42.518Z,7.30
2017-10-30T23:22:09.487Z,7.30
2017-10-30T23:24:36.061Z,7.30
2017-10-30T23:27:03.031Z,7.20
2017-10-30T23:29:29.298Z,7.20
2017-10-30T23:31:56.129Z,7.10
2017-10-30T23:34:22.431Z,6.90
2017-10-30T23:36:50.122Z,6.90
2017-10-30T23:39:16.626Z,6.90
2017-10-30T23:41:42.880Z,7.00
2017-10-30T23:44:09.164Z,7.10
2017-10-30T23:46:35.358Z,7.00
2017-10-30T23:49:01.821Z,7.00
2017-10-30T23:51:28.052Z,7.00
2017-10-30T23:53:55.934Z,7.00
2017-10-30T23:56:22.187Z,6.90
2017-10-30T23:58:48.812Z,6.90
